sensor_id;sensor_type;location;lat;lon;timestamp;pressure;altitude;pressure_sealevel;temperature;humidity
8075;BME280;4080;42.676;23.372;2023-04-26T00:01:07;94181.13;;;10.48;100.00
8075;BME280;4080;42.676;23.372;2023-04-26T00:03:35;94177.00;;;10.42;100.00
8075;BME280;4080;42.676;23.372;2023-04-26T00:06:02;94172.84;;;10.36;100.00
8075;BME280;4080;42.676;23.372;2023-04-26T00:08:30;94163.81;;;10.23;100.00
8075;BME280;4080;42.676;23.372;2023-04-26T00:10:57;94158.47;;;10.28;100.00
8075;BME280;4080;42.676;23.372;2023-04-26T00:13:23;94119.63;;;9.96;100.00
8075;BME280;4080;42.676;23.372;2023-04-26T00:15:50;94151.25;;;10.15;100.00
8075;BME280;4080;42.676;23.372;2023-04-26T00:18:17;94148.97;;;10.08;100.00
8075;BME280;4080;42.676;23.372;2023-04-26T00:20:45;94140.34;;;10.03;100.00
8075;BME280;4080;42.676;23.372;2023-04-26T00:23:12;94138.06;;;9.96;100.00
8075;BME280;4080;42.676;23.372;2023-04-26T00:25:38;94136.72;;;9.99;100.00
8075;BME280;4080;42.676;23.372;2023-04-26T00:28:05;94141.22;;;9.98;100.00
8075;BME280;4080;42.676;23.372;2023-04-26T00:30:34;94142.06;;;9.93;100.00
8075;BME280;4080;42.676;23.372;2023-04-26T00:33:02;94136.66;;;9.85;100.00
8075;BME280;4080;42.676;23.372;2023-04-26T00:35:29;94138.78;;;9.83;100.00
8075;BME280;4080;42.676;23.372;2023-04-26T00:37:57;94134.31;;;9.83;100.00
8075;BME280;4080;42.676;23.372;2023-04-26T00:40:23;94137.44;;;9.85;100.00
8075;BME280;4080;42.676;23.372;2023-04-26T00:42:56;94132.16;;;9.85;100.00
8075;BME280;4080;42.676;23.372;2023-04-26T00:45:23;94127.47;;;9.82;100.00
8075;BME280;4080;42.676;23.372;2023-04-26T00:47:49;94121.47;;;9.77;100.00
8075;BME280;4080;42.676;23.372;2023-04-26T00:50:17;94126.22;;;9.75;100.00
8075;BME280;4080;42.676;23.372;2023-04-26T00:52:44;94135.19;;;9.74;100.00
8075;BME280;4080;42.676;23.372;2023-04-26T00:55:14;94127.78;;;9.76;100.00
8075;BME280;4080;42.676;23.372;2023-04-26T00:57:42;94135.41;;;9.77;100.00
8075;BME280;4080;42.676;23.372;2023-04-26T01:00:11;94135.91;;;9.79;100.00
8075;BME280;4080;42.676;23.372;2023-04-26T01:02:37;94129.81;;;9.84;100.00
8075;BME280;4080;42.676;23.372;2023-04-26T01:05:06;94139.28;;;9.85;100.00
8075;BME280;4080;42.676;23.372;2023-04-26T01:07:33;94135.88;;;9.84;100.00
8075;BME280;4080;42.676;23.372;2023-04-26T01:10:03;94134.81;;;9.85;100.00
8075;BME280;4080;42.676;23.372;2023-04-26T01:12:31;94134.81;;;9.85;100.00
8075;BME280;4080;42.676;23.372;2023-04-26T01:14:58;94128.28;;;9.78;100.00
8075;BME280;4080;42.676;23.372;2023-04-26T01:17:25;94136.72;;;9.80;100.00
8075;BME280;4080;42.676;23.372;2023-04-26T01:19:52;94111.81;;;9.48;100.00
8075;BME280;4080;42.676;23.372;2023-04-26T01:22:19;94131.13;;;9.62;100.00
8075;BME280;4080;42.676;23.372;2023-04-26T01:24:50;94132.41;;;9.65;100.00
8075;BME280;4080;42.676;23.372;2023-04-26T01:27:16;94124.66;;;9.74;100.00
8075;BME280;4080;42.676;23.372;2023-04-26T01:29:43;94119.91;;;9.76;100.00
8075;BME280;4080;42.676;23.372;2023-04-26T01:32:10;94099.47;;;9.68;100.00
8075;BME280;4080;42.676;23.372;2023-04-26T01:34:37;94112.84;;;9.71;100.00
8075;BME280;4080;42.676;23.372;2023-04-26T01:37:04;94128.50;;;9.62;100.00
8075;BME280;4080;42.676;23.372;2023-04-26T01:39:32;94129.22;;;9.49;100.00
8075;BME280;4080;42.676;23.372;2023-04-26T01:42:00;94128.25;;;9.40;100.00
8075;BME280;4080;42.676;23.372;2023-04-26T01:44:27;94127.25;;;9.36;100.00
8075;BME280;4080;42.676;23.372;2023-04-26T01:46:53;94133.13;;;9.28;100.00
8075;BME280;4080;42.676;23.372;2023-04-26T01:49:20;94134.81;;;9.19;100.00
8075;BME280;4080;42.676;23.372;2023-04-26T01:51:47;94140.66;;;9.11;100.00
8075;BME280;4080;42.676;23.372;2023-04-26T01:54:14;94140.44;;;9.07;100.00
8075;BME280;4080;42.676;23.372;2023-04-26T01:56:40;94136.25;;;9.06;100.00
8075;BME280;4080;42.676;23.372;2023-04-26T01:59:08;94138.81;;;9.11;100.00
8075;BME280;4080;42.676;23.372;2023-04-26T02:01:35;94135.06;;;9.17;100.00
8075;BME280;4080;42.676;23.372;2023-04-26T02:04:02;94078.84;;;8.89;100.00
8075;BME280;4080;42.676;23.372;2023-04-26T02:06:29;94128.66;;;9.28;100.00
8075;BME280;4080;42.676;23.372;2023-04-26T02:08:57;94123.66;;;9.27;100.00
8075;BME280;4080;42.676;23.372;2023-04-26T02:11:23;94110.56;;;9.22;100.00
8075;BME280;4080;42.676;23.372;2023-04-26T02:13:51;94129.66;;;9.32;100.00
8075;BME280;4080;42.676;23.372;2023-04-26T02:16:19;94127.59;;;9.29;100.00
8075;BME280;4080;42.676;23.372;2023-04-26T02:18:46;94112.72;;;9.15;100.00
8075;BME280;4080;42.676;23.372;2023-04-26T02:21:15;94110.72;;;9.07;100.00
8075;BME280;4080;42.676;23.372;2023-04-26T02:23:42;94110.72;;;9.07;100.00
8075;BME280;4080;42.676;23.372;2023-04-26T02:26:08;94108.09;;;9.07;100.00
8075;BME280;4080;42.676;23.372;2023-04-26T02:28:36;94115.19;;;9.06;100.00
8075;BME280;4080;42.676;23.372;2023-04-26T02:31:02;94115.75;;;9.03;100.00
8075;BME280;4080;42.676;23.372;2023-04-26T02:33:30;94121.31;;;9.01;100.00
8075;BME280;4080;42.676;23.372;2023-04-26T02:35:57;94117.09;;;9.00;100.00
8075;BME280;4080;42.676;23.372;2023-04-26T02:38:24;94126.16;;;8.89;100.00
8075;BME280;4080;42.676;23.372;2023-04-26T02:40:57;94125.41;;;8.84;100.00
8075;BME280;4080;42.676;23.372;2023-04-26T02:43:24;94127.75;;;8.85;100.00
8075;BME280;4080;42.676;23.372;2023-04-26T02:45:50;94126.69;;;8.86;100.00
8075;BME280;4080;42.676;23.372;2023-04-26T02:48:17;94119.28;;;8.93;100.00
8075;BME280;4080;42.676;23.372;2023-04-26T02:50:45;94119.22;;;8.98;100.00
8075;BME280;4080;42.676;23.372;2023-04-26T02:53:12;94114.19;;;9.02;100.00
8075;BME280;4080;42.676;23.372;2023-04-26T02:55:40;94102.09;;;9.01;100.00
8075;BME280;4080;42.676;23.372;2023-04-26T02:58:06;94101.31;;;9.00;100.00
8075;BME280;4080;42.676;23.372;2023-04-26T03:00:34;94100.03;;;8.98;100.00
8075;BME280;4080;42.676;23.372;2023-04-26T03:03:00;94095.06;;;8.96;100.00
8075;BME280;4080;42.676;23.372;2023-04-26T03:05:27;94100.31;;;8.96;100.00
8075;BME280;4080;42.676;23.372;2023-04-26T03:07:55;94094.56;;;8.94;100.00
8075;BME280;4080;42.676;23.372;2023-04-26T03:10:22;94106.72;;;8.85;100.00
8075;BME280;4080;42.676;23.372;2023-04-26T03:12:49;94113.75;;;8.95;100.00
8075;BME280;4080;42.676;23.372;2023-04-26T03:15:15;94111.13;;;8.95;100.00
8075;BME280;4080;42.676;23.372;2023-04-26T03:17:42;94106.91;;;8.94;100.00
8075;BME280;4080;42.676;23.372;2023-04-26T03:20:10;94099.25;;;8.97;100.00
8075;BME280;4080;42.676;23.372;2023-04-26T03:22:36;94100.53;;;9.00;100.00
8075;BME280;4080;42.676;23.372;2023-04-26T03:25:06;94097.06;;;9.05;100.00
8075;BME280;4080;42.676;23.372;2023-04-26T03:27:33;94076.09;;;8.99;100.00
8075;BME280;4080;42.676;23.372;2023-04-26T03:30:00;94093.53;;;9.14;100.00
8075;BME280;4080;42.676;23.372;2023-04-26T03:32:28;94095.59;;;9.17;100.00
8075;BME280;4080;42.676;23.372;2023-04-26T03:34:55;94098.06;;;9.09;100.00
8075;BME280;4080;42.676;23.372;2023-04-26T03:37:22;94096.50;;;9.08;100.00
8075;BME280;4080;42.676;23.372;2023-04-26T03:39:48;94095.66;;;9.12;100.00
8075;BME280;4080;42.676;23.372;2023-04-26T03:42:19;94057.00;;;8.89;100.00
8075;BME280;4080;42.676;23.372;2023-04-26T03:44:46;94096.94;;;9.15;100.00
8075;BME280;4080;42.676;23.372;2023-04-26T03:47:13;94098.50;;;9.16;100.00
8075;BME280;4080;42.676;23.372;2023-04-26T03:49:40;94102.97;;;9.20;100.00
8075;BME280;4080;42.676;23.372;2023-04-26T03:52:06;94116.78;;;9.31;100.00
8075;BME280;4080;42.676;23.372;2023-04-26T03:54:33;94109.25;;;9.43;100.00
8075;BME280;4080;42.676;23.372;2023-04-26T03:57:00;94119.22;;;9.46;100.00
8075;BME280;4080;42.676;23.372;2023-04-26T03:59:28;94118.72;;;9.44;100.00
8075;BME280;4080;42.676;23.372;2023-04-26T04:01:55;94115.28;;;9.44;100.00
8075;BME280;4080;42.676;23.372;2023-04-26T04:04:21;94117.31;;;9.52;100.00
8075;BME280;4080;42.676;23.372;2023-04-26T04:06:48;94113.72;;;9.67;100.00
8075;BME280;4080;42.676;23.372;2023-04-26T04:09:15;94111.22;;;9.56;100.00
8075;BME280;4080;42.676;23.372;2023-04-26T04:11:41;94122.84;;;9.93;100.00
8075;BME280;4080;42.676;23.372;2023-04-26T04:14:08;94117.72;;;10.02;100.00
8075;BME280;4080;42.676;23.372;2023-04-26T04:16:36;94126.88;;;10.04;100.00
8075;BME280;4080;42.676;23.372;2023-04-26T04:19:03;94136.84;;;10.07;100.00
8075;BME280;4080;42.676;23.372;2023-04-26T04:21:29;94141.00;;;10.13;100.00
8075;BME280;4080;42.676;23.372;2023-04-26T04:23:57;94122.56;;;10.13;100.00
8075;BME280;4080;42.676;23.372;2023-04-26T04:26:23;94142.66;;;10.28;100.00
8075;BME280;4080;42.676;23.372;2023-04-26T04:28:50;94144.44;;;10.33;100.00
8075;BME280;4080;42.676;23.372;2023-04-26T04:31:17;94139.03;;;10.43;100.00
8075;BME280;4080;42.676;23.372;2023-04-26T04:33:45;94137.88;;;10.49;100.00
8075;BME280;4080;42.676;23.372;2023-04-26T04:36:13;94141.13;;;10.60;100.00
8075;BME280;4080;42.676;23.372;2023-04-26T04:38:42;94155.00;;;10.65;100.00
8075;BME280;4080;42.676;23.372;2023-04-26T04:41:09;94150.31;;;10.62;100.00
8075;BME280;4080;42.676;23.372;2023-04-26T04:43:36;94146.03;;;10.66;100.00
8075;BME280;4080;42.676;23.372;2023-04-26T04:46:03;94147.63;;;10.81;100.00
8075;BME280;4080;42.676;23.372;2023-04-26T04:48:29;94151.63;;;10.78;100.00
8075;BME280;4080;42.676;23.372;2023-04-26T04:50:59;94157.03;;;10.87;100.00
8075;BME280;4080;42.676;23.372;2023-04-26T04:53:26;94149.13;;;11.01;100.00
8075;BME280;4080;42.676;23.372;2023-04-26T04:55:53;94162.38;;;11.14;100.00
8075;BME280;4080;42.676;23.372;2023-04-26T04:58:20;94164.31;;;11.09;100.00
8075;BME280;4080;42.676;23.372;2023-04-26T05:00:47;94145.06;;;11.08;100.00
8075;BME280;4080;42.676;23.372;2023-04-26T05:03:15;94148.38;;;11.14;100.00
8075;BME280;4080;42.676;23.372;2023-04-26T05:05:41;94156.44;;;11.36;100.00
8075;BME280;4080;42.676;23.372;2023-04-26T05:08:09;94162.31;;;11.47;100.00
8075;BME280;4080;42.676;23.372;2023-04-26T05:10:36;94150.94;;;11.60;100.00
8075;BME280;4080;42.676;23.372;2023-04-26T05:13:03;94157.22;;;11.78;100.00
8075;BME280;4080;42.676;23.372;2023-04-26T05:15:30;94154.56;;;11.92;100.00
8075;BME280;4080;42.676;23.372;2023-04-26T05:17:57;94157.69;;;12.07;100.00
8075;BME280;4080;42.676;23.372;2023-04-26T05:20:24;94164.09;;;12.29;100.00
8075;BME280;4080;42.676;23.372;2023-04-26T05:22:51;94157.66;;;12.43;100.00
8075;BME280;4080;42.676;23.372;2023-04-26T05:25:19;94167.94;;;12.45;100.00
8075;BME280;4080;42.676;23.372;2023-04-26T05:27:46;94170.91;;;12.43;100.00
8075;BME280;4080;42.676;23.372;2023-04-26T05:30:13;94168.56;;;12.42;100.00
8075;BME280;4080;42.676;23.372;2023-04-26T05:32:39;94176.94;;;12.58;100.00
8075;BME280;4080;42.676;23.372;2023-04-26T05:35:07;94177.19;;;12.70;100.00
8075;BME280;4080;42.676;23.372;2023-04-26T05:37:34;94177.41;;;12.82;100.00
8075;BME280;4080;42.676;23.372;2023-04-26T05:40:01;94177.78;;;12.89;100.00
8075;BME280;4080;42.676;23.372;2023-04-26T05:42:29;94188.72;;;12.96;100.00
8075;BME280;4080;42.676;23.372;2023-04-26T05:44:56;94184.25;;;13.05;100.00
8075;BME280;4080;42.676;23.372;2023-04-26T05:47:24;94189.72;;;13.31;100.00
8075;BME280;4080;42.676;23.372;2023-04-26T05:49:51;94189.06;;;13.57;100.00
8075;BME280;4080;42.676;23.372;2023-04-26T05:52:17;94186.16;;;13.76;100.00
8075;BME280;4080;42.676;23.372;2023-04-26T05:54:44;94185.59;;;13.87;100.00
8075;BME280;4080;42.676;23.372;2023-04-26T05:57:11;94199.19;;;14.03;100.00
8075;BME280;4080;42.676;23.372;2023-04-26T05:59:39;94194.25;;;14.10;100.00
8075;BME280;4080;42.676;23.372;2023-04-26T06:02:06;94198.47;;;14.20;100.00
8075;BME280;4080;42.676;23.372;2023-04-26T06:04:33;94203.91;;;14.15;100.00
8075;BME280;4080;42.676;23.372;2023-04-26T06:07:00;94201.53;;;14.05;100.00
8075;BME280;4080;42.676;23.372;2023-04-26T06:09:27;94199.81;;;14.00;100.00
8075;BME280;4080;42.676;23.372;2023-04-26T06:11:53;94192.31;;;13.93;100.00
8075;BME280;4080;42.676;23.372;2023-04-26T06:14:20;94203.84;;;13.89;100.00
8075;BME280;4080;42.676;23.372;2023-04-26T06:16:48;94202.56;;;13.78;100.00
8075;BME280;4080;42.676;23.372;2023-04-26T06:19:15;94196.41;;;13.60;100.00
8075;BME280;4080;42.676;23.372;2023-04-26T06:21:42;94200.91;;;13.51;100.00
8075;BME280;4080;42.676;23.372;2023-04-26T06:24:08;94197.88;;;13.44;100.00
8075;BME280;4080;42.676;23.372;2023-04-26T06:26:35;94190.69;;;13.35;100.00
8075;BME280;4080;42.676;23.372;2023-04-26T06:29:02;94193.38;;;13.44;100.00
8075;BME280;4080;42.676;23.372;2023-04-26T06:31:28;94195.66;;;13.68;100.00
8075;BME280;4080;42.676;23.372;2023-04-26T06:33:56;94202.91;;;13.85;100.00
8075;BME280;4080;42.676;23.372;2023-04-26T06:36:23;94192.06;;;14.21;100.00
8075;BME280;4080;42.676;23.372;2023-04-26T06:38:50;94192.28;;;14.59;100.00
8075;BME280;4080;42.676;23.372;2023-04-26T06:41:17;94195.22;;;14.92;100.00
8075;BME280;4080;42.676;23.372;2023-04-26T06:43:43;94139.31;;;14.88;100.00
8075;BME280;4080;42.676;23.372;2023-04-26T06:46:10;94200.13;;;15.63;100.00
8075;BME280;4080;42.676;23.372;2023-04-26T06:48:37;94198.41;;;15.96;100.00
8075;BME280;4080;42.676;23.372;2023-04-26T06:51:06;94195.84;;;16.08;100.00
8075;BME280;4080;42.676;23.372;2023-04-26T06:53:32;94198.09;;;16.27;100.00
8075;BME280;4080;42.676;23.372;2023-04-26T06:55:59;94204.81;;;16.54;100.00
8075;BME280;4080;42.676;23.372;2023-04-26T06:58:26;94202.53;;;16.65;100.00
8075;BME280;4080;42.676;23.372;2023-04-26T07:00:52;94200.19;;;16.42;100.00
8075;BME280;4080;42.676;23.372;2023-04-26T07:03:19;94201.25;;;16.21;100.00
8075;BME280;4080;42.676;23.372;2023-04-26T07:05:46;94203.44;;;15.89;100.00
8075;BME280;4080;42.676;23.372;2023-04-26T07:08:15;94208.97;;;15.75;100.00
8075;BME280;4080;42.676;23.372;2023-04-26T07:10:41;94214.63;;;15.74;100.00
8075;BME280;4080;42.676;23.372;2023-04-26T07:13:08;94215.69;;;15.81;100.00
8075;BME280;4080;42.676;23.372;2023-04-26T07:15:35;94209.69;;;15.93;100.00
8075;BME280;4080;42.676;23.372;2023-04-26T07:18:01;94225.22;;;15.82;100.00
8075;BME280;4080;42.676;23.372;2023-04-26T07:20:28;94218.06;;;15.74;100.00
8075;BME280;4080;42.676;23.372;2023-04-26T07:22:55;94212.16;;;15.51;100.00
8075;BME280;4080;42.676;23.372;2023-04-26T07:25:23;94219.06;;;15.61;100.00
8075;BME280;4080;42.676;23.372;2023-04-26T07:27:50;94226.84;;;15.66;100.00
8075;BME280;4080;42.676;23.372;2023-04-26T07:30:17;94212.47;;;15.67;100.00
8075;BME280;4080;42.676;23.372;2023-04-26T07:32:43;94223.38;;;15.74;100.00
8075;BME280;4080;42.676;23.372;2023-04-26T07:35:10;94223.03;;;16.14;100.00
8075;BME280;4080;42.676;23.372;2023-04-26T07:37:40;94228.88;;;16.37;100.00
8075;BME280;4080;42.676;23.372;2023-04-26T07:40:08;94231.66;;;16.70;100.00
8075;BME280;4080;42.676;23.372;2023-04-26T07:42:37;94243.53;;;16.93;100.00
8075;BME280;4080;42.676;23.372;2023-04-26T07:45:04;94233.47;;;16.99;100.00
8075;BME280;4080;42.676;23.372;2023-04-26T07:47:31;94233.97;;;17.13;100.00
8075;BME280;4080;42.676;23.372;2023-04-26T07:49:58;94233.91;;;17.22;100.00
8075;BME280;4080;42.676;23.372;2023-04-26T07:52:24;94238.06;;;17.11;100.00
8075;BME280;4080;42.676;23.372;2023-04-26T07:54:51;94233.06;;;17.09;100.00
8075;BME280;4080;42.676;23.372;2023-04-26T07:57:17;94227.84;;;17.13;100.00
8075;BME280;4080;42.676;23.372;2023-04-26T07:59:46;94233.19;;;17.13;100.00
8075;BME280;4080;42.676;23.372;2023-04-26T08:02:12;94241.38;;;17.07;99.76
8075;BME280;4080;42.676;23.372;2023-04-26T08:04:45;94239.81;;;17.06;96.32
8075;BME280;4080;42.676;23.372;2023-04-26T08:07:12;94235.22;;;17.16;95.51
8075;BME280;4080;42.676;23.372;2023-04-26T08:09:39;94237.22;;;17.19;96.99
8075;BME280;4080;42.676;23.372;2023-04-26T08:12:06;94244.72;;;17.37;95.12
8075;BME280;4080;42.676;23.372;2023-04-26T08:14:33;94239.00;;;17.48;94.73
8075;BME280;4080;42.676;23.372;2023-04-26T08:17:02;94239.50;;;17.41;93.90
8075;BME280;4080;42.676;23.372;2023-04-26T08:19:29;94234.72;;;17.34;93.85
8075;BME280;4080;42.676;23.372;2023-04-26T08:21:57;94204.81;;;17.29;97.95
8075;BME280;4080;42.676;23.372;2023-04-26T08:24:24;94244.66;;;17.79;92.79
8075;BME280;4080;42.676;23.372;2023-04-26T08:26:51;94235.53;;;17.80;91.95
8075;BME280;4080;42.676;23.372;2023-04-26T08:29:18;94236.97;;;17.78;91.61
8075;BME280;4080;42.676;23.372;2023-04-26T08:31:45;94244.97;;;17.78;91.99
8075;BME280;4080;42.676;23.372;2023-04-26T08:34:13;94240.97;;;17.84;93.39
8075;BME280;4080;42.676;23.372;2023-04-26T08:36:39;94207.78;;;17.60;91.90
8075;BME280;4080;42.676;23.372;2023-04-26T08:39:07;94248.09;;;17.80;90.63
8075;BME280;4080;42.676;23.372;2023-04-26T08:41:37;94234.06;;;17.71;92.23
8075;BME280;4080;42.676;23.372;2023-04-26T08:44:04;94238.16;;;17.68;95.36
8075;BME280;4080;42.676;23.372;2023-04-26T08:46:35;94239.38;;;17.71;93.26
8075;BME280;4080;42.676;23.372;2023-04-26T08:49:15;94228.91;;;17.65;92.15
8075;BME280;4080;42.676;23.372;2023-04-26T08:51:46;94245.63;;;17.75;93.19
8075;BME280;4080;42.676;23.372;2023-04-26T08:54:15;94237.78;;;17.57;91.27
8075;BME280;4080;42.676;23.372;2023-04-26T08:56:43;94247.00;;;17.48;93.25
8075;BME280;4080;42.676;23.372;2023-04-26T08:59:10;94252.31;;;17.48;93.02
8075;BME280;4080;42.676;23.372;2023-04-26T09:01:38;94216.69;;;17.19;91.53
8075;BME280;4080;42.676;23.372;2023-04-26T09:04:05;94242.09;;;17.17;93.83
8075;BME280;4080;42.676;23.372;2023-04-26T09:06:34;94233.97;;;17.13;94.25
8075;BME280;4080;42.676;23.372;2023-04-26T09:09:02;94243.22;;;17.16;93.40
8075;BME280;4080;42.676;23.372;2023-04-26T09:11:32;94246.50;;;17.13;92.32
8075;BME280;4080;42.676;23.372;2023-04-26T09:14:16;94246.78;;;17.20;92.37
8075;BME280;4080;42.676;23.372;2023-04-26T09:16:43;94253.00;;;17.24;91.23
8075;BME280;4080;42.676;23.372;2023-04-26T09:19:10;94249.25;;;17.25;91.63
8075;BME280;4080;42.676;23.372;2023-04-26T09:21:41;94249.25;;;17.25;91.93
8075;BME280;4080;42.676;23.372;2023-04-26T09:24:10;94250.38;;;17.36;91.67
8075;BME280;4080;42.676;23.372;2023-04-26T09:26:36;94246.41;;;17.42;89.41
8075;BME280;4080;42.676;23.372;2023-04-26T09:29:11;94252.38;;;17.39;89.71
8075;BME280;4080;42.676;23.372;2023-04-26T09:31:40;94241.44;;;17.53;90.85
8075;BME280;4080;42.676;23.372;2023-04-26T09:34:08;94225.34;;;17.49;90.25
8075;BME280;4080;42.676;23.372;2023-04-26T09:36:50;94257.13;;;17.66;90.22
8075;BME280;4080;42.676;23.372;2023-04-26T09:39:34;94262.94;;;17.68;88.86
8075;BME280;4080;42.676;23.372;2023-04-26T09:42:02;94251.56;;;17.59;87.78
8075;BME280;4080;42.676;23.372;2023-04-26T09:44:29;94227.63;;;17.38;87.37
8075;BME280;4080;42.676;23.372;2023-04-26T09:46:57;94246.06;;;17.44;87.34
8075;BME280;4080;42.676;23.372;2023-04-26T09:49:25;94244.06;;;17.41;88.66
8075;BME280;4080;42.676;23.372;2023-04-26T09:52:03;94237.03;;;17.36;88.38
8075;BME280;4080;42.676;23.372;2023-04-26T09:54:41;94241.47;;;17.32;86.76
8075;BME280;4080;42.676;23.372;2023-04-26T09:57:08;94243.69;;;17.30;87.59
8075;BME280;4080;42.676;23.372;2023-04-26T09:59:39;94243.47;;;17.23;86.33
8075;BME280;4080;42.676;23.372;2023-04-26T10:02:09;94204.38;;;16.94;86.03
8075;BME280;4080;42.676;23.372;2023-04-26T10:04:38;94235.53;;;17.14;85.89
8075;BME280;4080;42.676;23.372;2023-04-26T10:07:08;94236.16;;;17.11;85.89
8075;BME280;4080;42.676;23.372;2023-04-26T10:09:35;94239.16;;;17.10;85.00
8075;BME280;4080;42.676;23.372;2023-04-26T10:12:02;94187.81;;;16.67;84.83
8075;BME280;4080;42.676;23.372;2023-04-26T10:14:29;94237.38;;;17.01;83.35
8075;BME280;4080;42.676;23.372;2023-04-26T10:16:57;94235.56;;;16.93;85.08
8075;BME280;4080;42.676;23.372;2023-04-26T10:19:24;94230.34;;;16.97;85.55
8075;BME280;4080;42.676;23.372;2023-04-26T10:21:52;94233.13;;;17.21;84.90
8075;BME280;4080;42.676;23.372;2023-04-26T10:24:24;94233.66;;;17.48;83.68
8075;BME280;4080;42.676;23.372;2023-04-26T10:26:52;94217.78;;;17.51;78.66
8075;BME280;4080;42.676;23.372;2023-04-26T10:29:22;94225.06;;;17.42;80.33
8075;BME280;4080;42.676;23.372;2023-04-26T10:32:06;94227.72;;;17.42;79.46
8075;BME280;4080;42.676;23.372;2023-04-26T10:34:35;94225.50;;;17.32;78.46
8075;BME280;4080;42.676;23.372;2023-04-26T10:37:06;94221.28;;;17.31;78.70
8075;BME280;4080;42.676;23.372;2023-04-26T10:39:35;94224.72;;;17.31;78.18
8075;BME280;4080;42.676;23.372;2023-04-26T10:42:22;94219.06;;;17.12;79.02
8075;BME280;4080;42.676;23.372;2023-04-26T10:44:49;94221.59;;;16.96;80.20
8075;BME280;4080;42.676;23.372;2023-04-26T10:47:25;94216.50;;;16.83;79.85
8075;BME280;4080;42.676;23.372;2023-04-26T10:50:01;94227.66;;;16.85;79.12
8075;BME280;4080;42.676;23.372;2023-04-26T10:52:28;94219.78;;;16.88;78.42
8075;BME280;4080;42.676;23.372;2023-04-26T10:54:57;94206.91;;;16.90;76.91
8075;BME280;4080;42.676;23.372;2023-04-26T10:57:46;94217.78;;;16.85;76.69
8075;BME280;4080;42.676;23.372;2023-04-26T11:00:24;94219.50;;;16.81;75.54
8075;BME280;4080;42.676;23.372;2023-04-26T11:03:05;94207.22;;;16.68;76.05
8075;BME280;4080;42.676;23.372;2023-04-26T11:05:35;94218.13;;;16.75;75.50
8075;BME280;4080;42.676;23.372;2023-04-26T11:08:06;94225.56;;;16.69;74.88
8075;BME280;4080;42.676;23.372;2023-04-26T11:10:37;94213.50;;;16.63;74.82
8075;BME280;4080;42.676;23.372;2023-04-26T11:13:04;94220.91;;;16.58;75.48
8075;BME280;4080;42.676;23.372;2023-04-26T11:15:31;94224.81;;;16.60;75.88
8075;BME280;4080;42.676;23.372;2023-04-26T11:18:01;94216.31;;;16.67;75.83
8075;BME280;4080;42.676;23.372;2023-04-26T11:20:28;94217.38;;;16.74;75.07
8075;BME280;4080;42.676;23.372;2023-04-26T11:22:56;94221.25;;;16.77;75.03
8075;BME280;4080;42.676;23.372;2023-04-26T11:25:24;94215.03;;;16.94;74.10
8075;BME280;4080;42.676;23.372;2023-04-26T11:27:56;94215.00;;;17.15;73.21
8075;BME280;4080;42.676;23.372;2023-04-26T11:30:22;94217.94;;;17.34;73.10
8075;BME280;4080;42.676;23.372;2023-04-26T11:32:49;94215.34;;;17.58;74.45
8075;BME280;4080;42.676;23.372;2023-04-26T11:35:16;94218.63;;;17.76;70.80
8075;BME280;4080;42.676;23.372;2023-04-26T11:37:44;94227.28;;;17.73;71.36
8075;BME280;4080;42.676;23.372;2023-04-26T11:40:11;94222.09;;;17.77;70.77
8075;BME280;4080;42.676;23.372;2023-04-26T11:42:38;94216.09;;;17.80;69.76
8075;BME280;4080;42.676;23.372;2023-04-26T11:45:09;94219.53;;;17.80;70.70
8075;BME280;4080;42.676;23.372;2023-04-26T11:47:36;94228.31;;;17.93;71.33
8075;BME280;4080;42.676;23.372;2023-04-26T11:50:03;94221.88;;;18.06;70.29
8075;BME280;4080;42.676;23.372;2023-04-26T11:52:30;94205.75;;;18.03;67.97
8075;BME280;4080;42.676;23.372;2023-04-26T11:55:01;94218.09;;;18.19;68.17
8075;BME280;4080;42.676;23.372;2023-04-26T11:57:30;94220.88;;;18.23;67.95
8075;BME280;4080;42.676;23.372;2023-04-26T12:00:08;94213.41;;;18.41;68.62
8075;BME280;4080;42.676;23.372;2023-04-26T12:02:36;94204.03;;;18.59;67.86
8075;BME280;4080;42.676;23.372;2023-04-26T12:05:04;94204.03;;;18.71;66.00
8075;BME280;4080;42.676;23.372;2023-04-26T12:07:34;94199.16;;;18.73;66.36
8075;BME280;4080;42.676;23.372;2023-04-26T12:10:24;94210.97;;;18.48;65.70
8075;BME280;4080;42.676;23.372;2023-04-26T12:12:52;94189.97;;;17.85;67.32
8075;BME280;4080;42.676;23.372;2023-04-26T12:15:23;94200.16;;;17.71;68.58
8075;BME280;4080;42.676;23.372;2023-04-26T12:17:52;94195.56;;;17.59;69.57
8075;BME280;4080;42.676;23.372;2023-04-26T12:20:25;94201.56;;;17.56;69.51
8075;BME280;4080;42.676;23.372;2023-04-26T12:23:05;94196.00;;;17.61;68.90
8075;BME280;4080;42.676;23.372;2023-04-26T12:25:33;94185.34;;;17.61;69.45
8075;BME280;4080;42.676;23.372;2023-04-26T12:28:01;94196.28;;;17.93;70.02
8075;BME280;4080;42.676;23.372;2023-04-26T12:30:30;94200.19;;;17.95;67.56
8075;BME280;4080;42.676;23.372;2023-04-26T12:32:57;94202.63;;;17.76;67.57
8075;BME280;4080;42.676;23.372;2023-04-26T12:35:24;94178.97;;;17.42;67.65
8075;BME280;4080;42.676;23.372;2023-04-26T12:37:51;94187.50;;;17.23;67.87
8075;BME280;4080;42.676;23.372;2023-04-26T12:40:21;94174.44;;;17.09;69.56
8075;BME280;4080;42.676;23.372;2023-04-26T12:42:48;94189.41;;;17.01;69.74
8075;BME280;4080;42.676;23.372;2023-04-26T12:45:16;94118.13;;;16.44;70.84
8075;BME280;4080;42.676;23.372;2023-04-26T12:47:45;94153.25;;;16.59;70.50
8075;BME280;4080;42.676;23.372;2023-04-26T12:50:12;94199.38;;;16.71;71.11
8075;BME280;4080;42.676;23.372;2023-04-26T12:52:39;94184.50;;;16.70;71.29
8075;BME280;4080;42.676;23.372;2023-04-26T12:55:07;94188.78;;;16.63;71.93
8075;BME280;4080;42.676;23.372;2023-04-26T12:57:35;94180.91;;;16.45;72.38
8075;BME280;4080;42.676;23.372;2023-04-26T13:00:02;94144.06;;;16.06;72.69
8075;BME280;4080;42.676;23.372;2023-04-26T13:02:30;94196.84;;;16.25;73.52
8075;BME280;4080;42.676;23.372;2023-04-26T13:04:59;94193.31;;;16.12;73.32
8075;BME280;4080;42.676;23.372;2023-04-26T13:07:28;94197.00;;;15.99;73.32
8075;BME280;4080;42.676;23.372;2023-04-26T13:09:55;94199.34;;;15.92;73.97
8075;BME280;4080;42.676;23.372;2023-04-26T13:12:22;94204.41;;;15.84;73.60